Airfield :
LOGIN :

Register | Disclaimer

   EN    FR    IT 

 










Legend :    VFR   Marginal VFR   IFR   Intensive IFR   Very Intensive IFR
Visi :
Ceiling :
>= 8 km
>= 3000ft
5 to 8 km
1000 to 3000 ft
1500m to 5 km
500 to 1000 ft
800 to 1500m
200 to 500 ft
< 800m
< 200 ft
Symbols :   Thunderstorms  Fog  Heavy snow  Heavy precipitations  Wind > 20 kt
SIGMETs :     Misc.  Thunderstorms  Icing  Turbulence  Mountain Waves  Volcanic Ashes







- Airport Elevation : 364 ft
- IATA code : FRA


EDDF - Frankfurt Int.

CURRENT METAR :
  • 240720Z 19008KT 8000 FEW003 BKN005 BKN013 11/10 Q1025 NOSIG

EXPIRED METARs :
  • 240650Z 19008KT 6000 -DZ FEW003 BKN004 BKN012 11/10 Q1024 TEMPO 4000
  • 240620Z 19008KT 160V220 3500 -DZRA BR BKN004 BKN013 11/10 Q1024 TEMPO 2500
  • 240550Z 18008KT 5000 -DZ BR BKN004 BKN015 11/10 Q1024 TEMPO 4000
  • 240520Z 18008KT 5000 -DZ BR BKN004 BKN015 11/10 Q1024 TEMPO 4000
  • 240450Z 19008KT 6000 -DZRA BKN004 BKN015 11/10 Q1024 TEMPO 4000

TAF TAF EDDF
Valid from the 24 at 06:00 until the 25 at 12:00 UTC


240500Z 2406/2512 20006KT 9000 BKN015
TEMPO 2406/2412 4000 -DZ BKN009
PROB30
TEMPO 2406/2409 BKN004
TEMPO 2412/2420 BKN011
TEMPO 2420/2509 4000 -DZRA BKN009
No reported NOTAMs for that airfield.



MET'MAP, your aeronautical weather chart ! - Copyright ORBIFLY December 2007 - Disclaimer

ORBIFLY MET'MAP TEAM :

Programming & Development : Alexandra Zaïnal
Concept & Development : Baudouin d'Aumeries
Co-Development & Prog : Marc-Olivier Méhu
Technical & hardware support : Manuel Goepfert

Contact : metmap@orbifly.com




SOURCES & CREDITS :

   NOAA